createdAt,value
2023-01-01T00:01:43.400Z,10.90
2023-01-01T00:04:15.090Z,11.17
2023-01-01T00:06:43.544Z,10.40
2023-01-01T00:09:28.998Z,9.30
2023-01-01T00:11:55.743Z,10.60
2023-01-01T00:14:22.672Z,9.23
2023-01-01T00:16:49.766Z,8.60
2023-01-01T00:19:16.506Z,8.13
2023-01-01T00:21:43.389Z,7.10
2023-01-01T00:24:10.301Z,6.93
2023-01-01T00:26:37.027Z,5.97
2023-01-01T00:29:04.737Z,5.90
2023-01-01T00:31:31.797Z,5.17
2023-01-01T00:33:58.706Z,4.80
2023-01-01T00:36:27.008Z,4.50
2023-01-01T00:38:53.885Z,4.67
2023-01-01T00:41:20.903Z,3.77
2023-01-01T00:43:47.675Z,3.77
2023-01-01T00:46:14.836Z,3.23
2023-01-01T00:48:41.619Z,4.00
2023-01-01T00:51:08.654Z,3.90
2023-01-01T00:53:35.772Z,3.70
2023-01-01T00:56:03.401Z,3.50
2023-01-01T00:58:30.296Z,3.40
2023-01-01T01:00:57.068Z,3.00
2023-01-01T01:03:30.407Z,3.30
2023-01-01T01:06:06.021Z,3.00
2023-01-01T01:08:34.644Z,3.00
2023-01-01T01:11:11.791Z,3.03
2023-01-01T01:13:39.931Z,3.33
2023-01-01T01:16:28.799Z,3.10
2023-01-01T01:18:58.727Z,2.90
2023-01-01T01:21:26.781Z,2.87
2023-01-01T01:23:54.143Z,2.80
2023-01-01T01:26:24.028Z,2.90
2023-01-01T01:28:51.955Z,3.13
2023-01-01T01:31:20.632Z,2.70
2023-01-01T01:33:48.184Z,3.13
2023-01-01T01:36:16.952Z,3.10
2023-01-01T01:38:43.886Z,2.70
2023-01-01T01:41:26.700Z,3.17
2023-01-01T01:44:04.193Z,3.27
2023-01-01T01:46:44.491Z,2.67
2023-01-01T01:49:25.975Z,2.57
2023-01-01T01:51:54.024Z,3.20
2023-01-01T01:54:24.013Z,3.00
2023-01-01T01:57:04.419Z,2.20
2023-01-01T01:59:36.196Z,2.73
2023-01-01T02:02:03.055Z,2.90
2023-01-01T02:04:29.812Z,2.80
2023-01-01T02:06:56.920Z,2.80
2023-01-01T02:09:23.866Z,2.70
2023-01-01T02:11:50.577Z,2.40
2023-01-01T02:14:17.230Z,2.80
2023-01-01T02:16:49.698Z,3.23
2023-01-01T02:19:38.699Z,2.47
2023-01-01T02:22:11.684Z,3.00
2023-01-01T02:24:57.254Z,2.80
2023-01-01T02:27:42.119Z,2.57
2023-01-01T02:30:10.237Z,2.70
2023-01-01T02:32:45.388Z,2.73
2023-01-01T02:35:51.171Z,2.80
2023-01-01T02:38:32.885Z,2.70
2023-01-01T02:41:02.783Z,3.00
2023-01-01T02:43:29.546Z,2.50
2023-01-01T02:45:56.733Z,2.77
2023-01-01T02:48:48.940Z,2.80
2023-01-01T02:51:21.474Z,2.80
2023-01-01T02:53:59.750Z,2.73
2023-01-01T02:56:37.540Z,2.90
2023-01-01T02:59:43.116Z,2.60
2023-01-01T03:02:25.080Z,2.40
2023-01-01T03:05:14.986Z,2.70
2023-01-01T03:07:51.773Z,3.07
2023-01-01T03:10:33.145Z,2.87
2023-01-01T03:13:09.124Z,2.80
2023-01-01T03:15:48.016Z,2.57
2023-01-01T03:18:24.473Z,2.70
2023-01-01T03:20:54.630Z,2.90
2023-01-01T03:23:35.623Z,2.70
2023-01-01T03:26:08.447Z,2.90
2023-01-01T03:28:40.396Z,2.87
2023-01-01T03:31:07.569Z,3.37
2023-01-01T03:33:43.577Z,2.60
2023-01-01T03:36:15.247Z,2.90
2023-01-01T03:38:50.604Z,2.83
2023-01-01T03:41:26.940Z,3.00
2023-01-01T03:44:03.161Z,2.90
2023-01-01T03:46:33.861Z,2.57
2023-01-01T03:49:04.275Z,2.83
2023-01-01T03:51:58.421Z,3.03
2023-01-01T03:54:30.851Z,2.60
2023-01-01T03:57:16.607Z,2.77
2023-01-01T04:00:02.763Z,2.57
2023-01-01T04:02:42.911Z,2.60
2023-01-01T04:05:11.331Z,2.30
2023-01-01T04:07:39.062Z,2.70
2023-01-01T04:10:17.251Z,2.77
2023-01-01T04:12:50.504Z,2.60
2023-01-01T04:15:19.957Z,2.60
2023-01-01T04:17:47.721Z,2.47
2023-01-01T04:20:14.975Z,2.70
2023-01-01T04:22:42.321Z,2.90
2023-01-01T04:25:10.285Z,2.70
2023-01-01T04:27:38.800Z,2.50
2023-01-01T04:30:08.099Z,2.20
2023-01-01T04:32:34.937Z,2.67
2023-01-01T04:35:01.592Z,2.40
2023-01-01T04:37:28.234Z,2.53
2023-01-01T04:39:54.875Z,2.47
2023-01-01T04:42:21.663Z,2.23
2023-01-01T04:44:48.319Z,2.40
2023-01-01T04:47:15.240Z,2.47
2023-01-01T04:49:41.998Z,2.23
2023-01-01T04:52:08.911Z,2.80
2023-01-01T04:54:35.651Z,2.50
2023-01-01T04:57:02.378Z,2.30
2023-01-01T04:59:30.687Z,2.20
2023-01-01T05:01:58.302Z,2.20
2023-01-01T05:04:25.144Z,2.37
2023-01-01T05:06:51.971Z,2.30
2023-01-01T05:09:18.952Z,2.40
2023-01-01T05:11:45.736Z,2.30
2023-01-01T05:14:12.576Z,2.30
2023-01-01T05:16:40.666Z,2.33
2023-01-01T05:19:07.953Z,1.90
2023-01-01T05:21:40.439Z,2.07
2023-01-01T05:24:09.826Z,2.03
2023-01-01T05:26:41.225Z,1.77
2023-01-01T05:29:15.586Z,2.00
2023-01-01T05:31:43.893Z,2.27
2023-01-01T05:34:10.755Z,2.30
2023-01-01T05:36:40.959Z,2.10
2023-01-01T05:39:09.463Z,2.00
2023-01-01T05:41:36.887Z,2.17
2023-01-01T05:44:06.268Z,2.10
2023-01-01T05:46:33.647Z,2.20
2023-01-01T05:49:00.869Z,2.30
2023-01-01T05:51:29.846Z,1.90
2023-01-01T05:53:58.053Z,2.10
2023-01-01T05:56:25.617Z,2.00
2023-01-01T05:58:52.558Z,2.10
2023-01-01T06:01:24.980Z,2.00
2023-01-01T06:03:53.122Z,2.00
2023-01-01T06:06:22.892Z,2.10
2023-01-01T06:08:51.073Z,2.20
2023-01-01T06:11:18.024Z,2.27
2023-01-01T06:13:44.731Z,2.00
2023-01-01T06:16:12.373Z,2.03
2023-01-01T06:18:39.130Z,2.03
2023-01-01T06:21:06.830Z,2.13
2023-01-01T06:23:33.575Z,2.17
2023-01-01T06:26:16.756Z,2.00
2023-01-01T06:28:44.316Z,1.67
2023-01-01T06:31:13.590Z,2.07
2023-01-01T06:33:42.048Z,2.73
2023-01-01T06:36:11.769Z,2.17
2023-01-01T06:38:42.225Z,2.17
2023-01-01T06:41:12.418Z,2.47
2023-01-01T06:43:39.327Z,2.00
2023-01-01T06:46:18.026Z,1.70
2023-01-01T06:48:47.062Z,1.83
2023-01-01T06:51:16.037Z,2.07
2023-01-01T06:53:43.371Z,2.20
2023-01-01T06:56:10.179Z,1.90
2023-01-01T06:58:37.269Z,2.40
2023-01-01T07:01:10.797Z,1.87
2023-01-01T07:03:38.357Z,2.10
2023-01-01T07:06:06.706Z,1.83
2023-01-01T07:08:33.972Z,2.17
2023-01-01T07:11:00.646Z,1.90
2023-01-01T07:13:29.199Z,2.20
2023-01-01T07:15:55.937Z,1.73
2023-01-01T07:18:24.259Z,2.00
2023-01-01T07:20:56.779Z,2.23
2023-01-01T07:23:24.588Z,1.73
2023-01-01T07:25:52.900Z,2.00
2023-01-01T07:28:20.540Z,1.90
2023-01-01T07:30:47.861Z,1.90
2023-01-01T07:33:17.133Z,1.87
2023-01-01T07:35:47.367Z,2.03
2023-01-01T07:38:14.711Z,2.50
2023-01-01T07:40:41.868Z,2.20
2023-01-01T07:43:09.740Z,2.00
2023-01-01T07:45:36.580Z,1.83
2023-01-01T07:48:03.941Z,1.97
2023-01-01T07:50:32.644Z,1.90
2023-01-01T07:52:59.678Z,2.13
2023-01-01T07:55:27.154Z,1.97
2023-01-01T07:57:53.855Z,2.03
2023-01-01T08:00:21.995Z,1.97
2023-01-01T08:02:49.453Z,1.97
2023-01-01T08:05:19.912Z,2.07
2023-01-01T08:07:51.076Z,1.83
2023-01-01T08:10:20.032Z,2.00
2023-01-01T08:12:47.533Z,2.10
2023-01-01T08:15:15.787Z,2.00
2023-01-01T08:17:46.758Z,2.00
2023-01-01T08:20:14.590Z,2.30
2023-01-01T08:22:41.547Z,2.40
2023-01-01T08:25:08.669Z,2.00
2023-01-01T08:27:35.411Z,2.70
2023-01-01T08:30:02.239Z,2.20
2023-01-01T08:32:30.354Z,1.97
2023-01-01T08:34:57.098Z,2.30
2023-01-01T08:37:24.172Z,2.20
2023-01-01T08:39:53.743Z,1.93
2023-01-01T08:42:20.486Z,2.00
2023-01-01T08:44:47.305Z,2.20
2023-01-01T08:47:22.678Z,2.20
2023-01-01T08:49:49.764Z,2.13
2023-01-01T08:52:17.457Z,2.00
2023-01-01T08:54:44.906Z,2.40
2023-01-01T08:57:12.153Z,1.80
2023-01-01T08:59:38.834Z,2.00
2023-01-01T09:02:06.352Z,2.07
2023-01-01T09:04:33.641Z,2.17
2023-01-01T09:07:00.366Z,1.90
2023-01-01T09:09:31.368Z,2.17
2023-01-01T09:12:03.843Z,2.00
2023-01-01T09:14:31.178Z,1.93
2023-01-01T09:16:57.963Z,2.10
2023-01-01T09:19:24.691Z,2.03
2023-01-01T09:21:52.126Z,2.77
2023-01-01T09:24:18.849Z,2.00
2023-01-01T09:26:46.201Z,1.83
2023-01-01T09:29:13.110Z,1.97
2023-01-01T09:31:39.816Z,2.40
2023-01-01T09:34:06.552Z,2.30
2023-01-01T09:36:33.821Z,2.00
2023-01-01T09:39:02.437Z,2.20
2023-01-01T09:41:56.888Z,1.97
2023-01-01T09:44:23.494Z,2.03
2023-01-01T09:46:52.578Z,1.80
2023-01-01T09:49:25.322Z,2.10
2023-01-01T09:51:58.254Z,2.10
2023-01-01T09:54:33.374Z,2.17
2023-01-01T09:57:03.979Z,2.30
2023-01-01T09:59:30.982Z,2.03
2023-01-01T10:02:11.789Z,2.17
2023-01-01T10:04:50.937Z,2.10
2023-01-01T10:07:40.053Z,2.20
2023-01-01T10:10:25.217Z,2.50
2023-01-01T10:13:07.019Z,1.87
2023-01-01T10:15:40.612Z,1.80
2023-01-01T10:18:17.454Z,2.00
2023-01-01T10:20:57.742Z,2.00
2023-01-01T10:23:28.426Z,2.30
2023-01-01T10:25:58.030Z,2.00
2023-01-01T10:28:39.368Z,1.87
2023-01-01T10:31:21.017Z,2.20
2023-01-01T10:33:48.423Z,2.10
2023-01-01T10:36:19.405Z,2.30
2023-01-01T10:38:48.272Z,2.20
2023-01-01T10:41:19.819Z,2.90
2023-01-01T10:43:48.319Z,2.53
2023-01-01T10:46:19.651Z,2.23
2023-01-01T10:49:12.108Z,2.00
2023-01-01T10:52:02.717Z,2.10
2023-01-01T10:54:40.416Z,2.47
2023-01-01T10:57:30.015Z,1.83
2023-01-01T11:00:11.946Z,2.43
2023-01-01T11:02:38.788Z,2.27
2023-01-01T11:05:22.297Z,2.10
2023-01-01T11:07:49.830Z,2.33
2023-01-01T11:10:22.520Z,2.10
2023-01-01T11:13:09.827Z,2.10
2023-01-01T11:15:42.037Z,2.10
2023-01-01T11:18:23.054Z,2.03
2023-01-01T11:20:58.285Z,2.43
2023-01-01T11:23:52.932Z,2.20
2023-01-01T11:26:24.608Z,2.17
2023-01-01T11:29:14.531Z,2.10
2023-01-01T11:31:42.878Z,2.00
2023-01-01T11:34:32.678Z,2.40
2023-01-01T11:37:33.097Z,2.17
2023-01-01T11:40:01.834Z,2.23
2023-01-01T11:42:34.795Z,2.53
2023-01-01T11:45:23.092Z,2.00
2023-01-01T11:47:59.952Z,2.40
2023-01-01T11:50:34.204Z,2.33
2023-01-01T11:53:19.549Z,2.10
2023-01-01T11:55:52.548Z,2.23
2023-01-01T11:58:38.268Z,2.63
2023-01-01T12:01:13.923Z,2.50
2023-01-01T12:03:53.542Z,2.40
2023-01-01T12:06:23.271Z,2.93
2023-01-01T12:09:01.993Z,2.67
2023-01-01T12:11:38.625Z,2.50
2023-01-01T12:14:13.874Z,2.43
2023-01-01T12:16:56.111Z,2.67
2023-01-01T12:19:41.546Z,2.50
2023-01-01T12:22:17.296Z,2.67
2023-01-01T12:24:45.962Z,2.57
2023-01-01T12:27:21.977Z,2.57
2023-01-01T12:30:18.191Z,2.80
2023-01-01T12:33:07.319Z,2.23
2023-01-01T12:35:43.646Z,2.37
2023-01-01T12:38:39.300Z,2.40
2023-01-01T12:41:23.177Z,2.83
2023-01-01T12:44:06.713Z,2.57
2023-01-01T12:46:48.540Z,2.40
2023-01-01T12:49:38.384Z,2.50
2023-01-01T12:52:22.298Z,2.13
2023-01-01T12:55:07.604Z,2.30
2023-01-01T12:58:09.968Z,2.10
2023-01-01T13:00:44.679Z,2.50
2023-01-01T13:03:20.679Z,3.03
2023-01-01T13:05:55.940Z,2.50
2023-01-01T13:08:22.746Z,2.37
2023-01-01T13:10:53.993Z,2.57
2023-01-01T13:13:20.713Z,2.33
2023-01-01T13:15:54.428Z,2.67
2023-01-01T13:18:24.474Z,2.60
2023-01-01T13:20:57.016Z,2.67
2023-01-01T13:23:35.620Z,2.80
2023-01-01T13:26:17.379Z,2.93
2023-01-01T13:28:56.120Z,3.10
2023-01-01T13:31:38.035Z,3.40
2023-01-01T13:34:35.938Z,2.90
2023-01-01T13:37:14.943Z,2.50
2023-01-01T13:40:01.911Z,2.53
2023-01-01T13:42:50.931Z,2.27
2023-01-01T13:46:00.700Z,2.30
2023-01-01T13:48:42.592Z,2.53
2023-01-01T13:52:05.961Z,2.33
2023-01-01T13:55:03.935Z,2.70
2023-01-01T13:57:38.615Z,3.27
2023-01-01T14:00:17.630Z,2.60
2023-01-01T14:02:48.818Z,2.63
2023-01-01T14:05:22.134Z,2.30
2023-01-01T14:07:55.062Z,2.70
2023-01-01T14:10:33.446Z,2.70
2023-01-01T14:13:06.371Z,2.50
2023-01-01T14:15:35.908Z,2.50
2023-01-01T14:18:05.653Z,2.80
2023-01-01T14:20:43.501Z,2.93
2023-01-01T14:23:17.056Z,2.93
2023-01-01T14:25:45.628Z,3.00
2023-01-01T14:28:20.287Z,3.03
2023-01-01T14:30:47.376Z,2.90
2023-01-01T14:33:29.025Z,2.60
2023-01-01T14:35:58.931Z,3.17
2023-01-01T14:38:35.897Z,3.77
2023-01-01T14:41:39.147Z,3.40
2023-01-01T14:44:16.655Z,3.00
2023-01-01T14:46:51.577Z,2.60
2023-01-01T14:49:27.783Z,2.97
2023-01-01T14:52:02.587Z,3.10
2023-01-01T14:54:36.093Z,3.33
2023-01-01T14:57:03.456Z,3.60
2023-01-01T14:59:32.955Z,3.77
2023-01-01T15:02:02.892Z,3.17
2023-01-01T15:04:30.289Z,3.33
2023-01-01T15:07:00.059Z,3.20
2023-01-01T15:09:28.641Z,3.33
2023-01-01T15:11:56.748Z,3.03
2023-01-01T15:14:29.541Z,3.17
2023-01-01T15:17:07.159Z,2.60
2023-01-01T15:19:35.378Z,3.13
2023-01-01T15:22:09.595Z,2.50
2023-01-01T15:24:38.126Z,2.83
2023-01-01T15:27:07.216Z,2.57
2023-01-01T15:29:39.285Z,2.90
2023-01-01T15:32:09.615Z,2.53
2023-01-01T15:34:43.193Z,3.23
2023-01-01T15:37:17.189Z,2.40
2023-01-01T15:39:53.128Z,2.60
2023-01-01T15:42:39.464Z,2.83
2023-01-01T15:45:25.113Z,3.23
2023-01-01T15:48:05.078Z,3.30
2023-01-01T15:50:34.680Z,2.97
2023-01-01T15:53:08.179Z,2.80
2023-01-01T15:55:42.705Z,2.90
2023-01-01T15:58:19.316Z,2.90
2023-01-01T16:00:56.108Z,2.67
2023-01-01T16:03:26.621Z,3.03
2023-01-01T16:05:57.737Z,2.73
2023-01-01T16:08:25.392Z,3.27
2023-01-01T16:10:52.317Z,3.27
2023-01-01T16:13:19.292Z,3.00
2023-01-01T16:15:55.645Z,2.73
2023-01-01T16:18:28.224Z,2.80
2023-01-01T16:20:55.819Z,3.10
2023-01-01T16:23:22.587Z,2.93
2023-01-01T16:25:49.247Z,3.00
2023-01-01T16:28:15.859Z,3.67
2023-01-01T16:30:43.587Z,3.03
2023-01-01T16:33:18.569Z,3.80
2023-01-01T16:35:45.444Z,2.97
2023-01-01T16:38:12.155Z,3.60
2023-01-01T16:40:38.892Z,3.20
2023-01-01T16:43:09.470Z,3.57
2023-01-01T16:45:36.216Z,3.27
2023-01-01T16:48:03.064Z,3.50
2023-01-01T16:50:29.699Z,3.80
2023-01-01T16:52:56.375Z,3.77
2023-01-01T16:55:23.004Z,3.40
2023-01-01T16:57:49.733Z,3.73
2023-01-01T17:00:16.669Z,3.43
2023-01-01T17:02:43.462Z,3.30
2023-01-01T17:05:11.052Z,3.03
2023-01-01T17:07:37.709Z,2.80
2023-01-01T17:10:04.995Z,2.50
2023-01-01T17:12:32.093Z,2.60
2023-01-01T17:14:58.746Z,3.33
2023-01-01T17:17:26.447Z,2.90
2023-01-01T17:19:53.142Z,2.70
2023-01-01T17:22:21.198Z,2.73
2023-01-01T17:24:47.933Z,3.17
2023-01-01T17:27:14.593Z,3.17
2023-01-01T17:29:41.268Z,2.83
2023-01-01T17:32:07.977Z,3.00
2023-01-01T17:34:34.648Z,2.97
2023-01-01T17:37:01.314Z,3.03
2023-01-01T17:39:28.010Z,3.43
2023-01-01T17:41:54.746Z,3.00
2023-01-01T17:44:21.444Z,3.00
2023-01-01T17:46:48.159Z,3.27
2023-01-01T17:49:15.070Z,2.97
2023-01-01T17:51:41.883Z,2.90
2023-01-01T17:54:13.071Z,2.33
2023-01-01T17:56:40.422Z,2.90
2023-01-01T17:59:07.218Z,2.67
2023-01-01T18:01:35.715Z,2.70
2023-01-01T18:04:05.683Z,2.43
2023-01-01T18:06:38.653Z,2.23
2023-01-01T18:09:11.366Z,2.17
2023-01-01T18:11:38.069Z,3.03
2023-01-01T18:14:05.286Z,2.20
2023-01-01T18:16:34.006Z,2.23
2023-01-01T18:19:03.878Z,2.30
2023-01-01T18:21:31.823Z,2.40
2023-01-01T18:23:59.166Z,2.50
2023-01-01T18:26:29.416Z,2.60
2023-01-01T18:29:01.344Z,2.23
2023-01-01T18:31:30.919Z,2.10
2023-01-01T18:33:57.882Z,2.40
2023-01-01T18:36:27.515Z,2.20
2023-01-01T18:39:15.503Z,2.50
2023-01-01T18:41:48.327Z,2.40
2023-01-01T18:44:30.681Z,2.30
2023-01-01T18:47:06.657Z,1.80
2023-01-01T18:49:35.441Z,1.63
2023-01-01T18:52:07.859Z,2.30
2023-01-01T18:54:35.863Z,2.00
2023-01-01T18:57:29.189Z,1.90
2023-01-01T18:59:59.877Z,2.73
2023-01-01T19:02:43.106Z,2.67
2023-01-01T19:05:18.288Z,1.53
2023-01-01T19:07:51.877Z,1.93
2023-01-01T19:10:18.753Z,2.03
2023-01-01T19:12:45.599Z,1.77
2023-01-01T19:15:18.021Z,1.93
2023-01-01T19:17:45.462Z,1.67
2023-01-01T19:20:21.713Z,1.57
2023-01-01T19:22:48.850Z,2.00
2023-01-01T19:25:36.114Z,2.00
2023-01-01T19:28:25.786Z,1.63
2023-01-01T19:30:52.553Z,1.97
2023-01-01T19:33:19.268Z,1.90
2023-01-01T19:35:45.952Z,2.20
2023-01-01T19:38:12.566Z,1.87
2023-01-01T19:40:39.272Z,1.67
2023-01-01T19:43:06.868Z,1.93
2023-01-01T19:45:33.971Z,2.07
2023-01-01T19:48:00.639Z,2.07
2023-01-01T19:50:27.481Z,1.40
2023-01-01T19:52:54.105Z,1.83
2023-01-01T19:55:20.765Z,1.97
2023-01-01T19:57:47.406Z,2.10
2023-01-01T20:00:14.658Z,1.83
2023-01-01T20:02:46.668Z,2.00
2023-01-01T20:05:14.835Z,1.93
2023-01-01T20:07:41.772Z,1.87
2023-01-01T20:10:08.852Z,1.83
2023-01-01T20:12:35.512Z,1.83
2023-01-01T20:15:05.234Z,1.60
2023-01-01T20:17:31.984Z,2.20
2023-01-01T20:19:58.733Z,1.90
2023-01-01T20:22:25.547Z,1.90
2023-01-01T20:24:52.396Z,1.93
2023-01-01T20:27:24.224Z,1.90
2023-01-01T20:29:51.484Z,1.90
2023-01-01T20:32:19.015Z,1.70
2023-01-01T20:34:45.819Z,1.87
2023-01-01T20:37:31.310Z,2.13
2023-01-01T20:39:58.019Z,2.00
2023-01-01T20:42:24.906Z,2.17
2023-01-01T20:44:51.637Z,2.10
2023-01-01T20:47:18.274Z,1.93
2023-01-01T20:49:46.323Z,2.27
2023-01-01T20:52:13.238Z,1.63
2023-01-01T20:54:39.898Z,2.00
2023-01-01T20:57:06.623Z,2.10
2023-01-01T20:59:36.429Z,2.20
2023-01-01T21:02:06.329Z,1.80
2023-01-01T21:04:33.305Z,1.70
2023-01-01T21:07:00.026Z,2.20
2023-01-01T21:09:26.672Z,1.87
2023-01-01T21:11:53.443Z,2.00
2023-01-01T21:14:23.944Z,1.87
2023-01-01T21:16:51.848Z,1.83
2023-01-01T21:19:26.149Z,2.47
2023-01-01T21:21:56.115Z,2.13
2023-01-01T21:24:28.996Z,2.13
2023-01-01T21:27:05.582Z,2.23
2023-01-01T21:29:33.049Z,1.90
2023-01-01T21:32:18.836Z,2.30
2023-01-01T21:34:45.708Z,2.13
2023-01-01T21:37:41.284Z,1.90
2023-01-01T21:40:45.928Z,2.10
2023-01-01T21:43:31.665Z,2.00
2023-01-01T21:46:07.447Z,2.43
2023-01-01T21:48:41.649Z,2.30
2023-01-01T21:51:14.457Z,2.30
2023-01-01T21:53:41.326Z,2.70
2023-01-01T21:56:32.017Z,2.23
2023-01-01T21:59:28.396Z,2.53
2023-01-01T22:02:31.769Z,2.50
2023-01-01T22:05:01.141Z,1.90
2023-01-01T22:10:29.439Z,2.20
2023-01-01T22:12:58.932Z,2.10
2023-01-01T22:15:26.536Z,2.20
2023-01-01T22:18:07.540Z,2.03
2023-01-01T22:20:38.344Z,2.70
2023-01-01T22:23:41.746Z,2.30
2023-01-01T22:26:20.180Z,2.53
2023-01-01T22:28:50.546Z,2.60
2023-01-01T22:31:28.239Z,2.00
2023-01-01T22:34:00.099Z,2.10
2023-01-01T22:36:33.629Z,2.07
2023-01-01T22:39:13.613Z,2.03
2023-01-01T22:41:42.076Z,2.13
2023-01-01T22:44:11.426Z,1.90
2023-01-01T22:46:41.373Z,2.10
2023-01-01T22:49:30.565Z,1.90
2023-01-01T22:51:58.367Z,1.97
2023-01-01T22:54:25.328Z,2.20
2023-01-01T22:56:51.947Z,2.50
2023-01-01T22:59:18.589Z,2.57
2023-01-01T23:01:45.302Z,1.93
2023-01-01T23:04:12.028Z,1.93
2023-01-01T23:06:38.994Z,1.97
2023-01-01T23:09:05.923Z,2.07
2023-01-01T23:11:32.584Z,1.87
2023-01-01T23:14:17.914Z,1.83
2023-01-01T23:16:44.571Z,2.30
2023-01-01T23:19:11.215Z,1.80
2023-01-01T23:21:42.241Z,1.77
2023-01-01T23:24:17.750Z,2.70
2023-01-01T23:26:45.240Z,2.53
2023-01-01T23:29:13.136Z,2.20
2023-01-01T23:31:41.724Z,2.27
2023-01-01T23:34:08.901Z,1.90
2023-01-01T23:36:35.883Z,2.13
2023-01-01T23:39:02.596Z,2.17
2023-01-01T23:41:29.456Z,2.40
2023-01-01T23:43:56.132Z,2.30
2023-01-01T23:46:23.035Z,2.50
2023-01-01T23:48:49.888Z,2.20
2023-01-01T23:51:18.192Z,2.33
2023-01-01T23:53:45.350Z,2.40
2023-01-01T23:56:12.434Z,1.97
2023-01-01T23:58:39.162Z,2.03
